Home > Products > Valid Products > TAF

000
FTUS42 KCHS 231100
TAFSAV
TAF
KSAV 231130Z 2312/2412 31006KT P6SM FEW060 SCT150
     FM232200 15004KT P6SM VCTS BKN060CB
     FM240300 VRB03KT P6SM SCT060 BKN150
     FM240900 VRB03KT 6SM BR SCT035=



000
FTUS42 KCHS 231100
TAFCHS
TAF
KCHS 231130Z 2312/2412 31005KT P6SM FEW060 SCT150
     FM231800 14007KT P6SM VCTS BKN060CB
     FM232300 VRB05KT P6SM SCT060 BKN150
     FM240900 04004KT P6SM BKN035=



000
FTUS42 KCHS 230500
TAFCHS
TAF
KCHS 230540Z 2306/2406 VRB03KT P6SM SCT150
     FM231400 33005KT P6SM FEW060 SCT150
     FM231800 15007KT P6SM VCTS BKN060CB
     FM232300 VRB05KT P6SM SCT060 BKN150=



000
FTUS42 KCHS 230500
TAFSAV
TAF
KSAV 230540Z 2306/2406 VRB03KT P6SM FEW150
     FM231400 30006KT P6SM FEW060 SCT150
     FM232300 VRB04KT P6SM VCSH BKN060=



000
FTUS42 KCHS 222300
TAFCHS
TAF
KCHS 222332Z 2300/2324 24004KT P6SM FEW070 SCT250
     FM231400 33005KT P6SM FEW050 SCT150=



000
FTUS42 KCHS 222300
TAFSAV
TAF
KSAV 222332Z 2300/2324 VRB03KT P6SM FEW070
     FM231400 32006KT P6SM FEW050 SCT150=



000
FTUS42 KCHS 221700
TAFCHS
TAF
KCHS 221723Z 2218/2318 29005KT P6SM FEW250
     FM222100 20007KT P6SM SCT060
     FM230100 VRB03KT P6SM FEW080=



000
FTUS42 KCHS 221700
TAFSAV
TAF
KSAV 221723Z 2218/2318 30005KT P6SM FEW050
     FM222100 18007KT P6SM SCT060
     FM230100 VRB03KT P6SM FEW100=



000
FTUS42 KCHS 221100
TAFCHS
TAF
KCHS 221120Z 2212/2312 VRB05KT P6SM FEW060
     FM222000 20008KT P6SM SCT060
     FM230200 VRB03KT P6SM SCT060 BKN150=



000
FTUS42 KCHS 221100
TAFSAV
TAF
KSAV 221120Z 2212/2312 VRB05KT P6SM FEW060
     FM222000 18007KT P6SM SCT060
     FM230200 VRB03KT P6SM SCT060=



000
FTUS42 KCHS 220500
TAFCHS
TAF
KCHS 220536Z 2206/2306 VRB05KT P6SM FEW060=



000
FTUS42 KCHS 220500
TAFSAV
TAF
KSAV 220536Z 2206/2306 VRB05KT P6SM FEW060=



000
FTUS42 KCHS 212300
TAFSAV
TAF
KSAV 212320Z 2200/2224 VRB05KT P6SM FEW050=



000
FTUS42 KCHS 212300
TAFCHS
TAF
KCHS 212320Z 2200/2224 VRB05KT P6SM FEW050=



000
FTUS42 KCHS 211700
TAFCHS
TAF
KCHS 211736Z 2118/2218 28005KT P6SM FEW050
     FM212200 20007KT P6SM FEW050
     FM220100 VRB03KT P6SM SKC=



000
FTUS42 KCHS 211700
TAFSAV
TAF
KSAV 211736Z 2118/2218 27007KT P6SM FEW100
     FM212200 17008KT P6SM FEW050
     FM220100 VRB02KT P6SM SKC=



000
FTUS42 KCHS 211100
TAFCHS
TAF
KCHS 211139Z 2112/2212 28006KT P6SM FEW050
     FM212100 20006KT P6SM FEW050
     FM220000 VRB03KT P6SM FEW150=



000
FTUS42 KCHS 211100
TAFSAV
TAF
KSAV 211139Z 2112/2212 VRB05KT P6SM FEW050=



000
FTUS42 KCHS 210500
TAFSAV
TAF
KSAV 210528Z 2106/2206 25005KT P6SM FEW060=



000
FTUS42 KCHS 210500
TAFCHS
TAF
KCHS 210528Z 2106/2206 26005KT P6SM FEW050=



000
FTUS42 KCHS 202300
TAFSAV
TAF
KSAV 202321Z 2100/2124 26006KT P6SM VCTS SCT050CB
     FM210200 25006KT P6SM FEW060=



000
FTUS42 KCHS 202300
TAFCHS
TAF
KCHS 202321Z 2100/2124 26006KT P6SM FEW050=



000
FTUS42 KCHS 202000 AAB
TAFCHS
TAF AMD
KCHS 202004Z 2020/2118 29007KT P6SM SCT050 SCT070
     FM210000 VRB04KT P6SM SKC=



000
FTUS42 KCHS 202000 AAA
TAFSAV
TAF AMD
KSAV 202004Z 2020/2118 29007G12KT P6SM SCT050 SCT080
     FM202300 VRB04KT P6SM SKC=



000
FTUS42 KCHS 201800 AAA
TAFCHS
TAF AMD
KCHS 201843Z 2019/2118 27008G13KT P6SM SCT040 SCT060
      TEMPO 2019/2021 BKN040 BKN060
     FM210000 VRB04KT P6SM FEW080=



000
FTUS42 KCHS 201700 CCA
TAFSAV
TAF COR
KSAV 201744Z 2018/2118 29010G15KT P6SM SCT035 SCT060
      TEMPO 2018/2020 SCT035 BKN060
     FM202300 VRB04KT P6SM FEW080=



000
FTUS42 KCHS 201700 CCA
TAFCHS
TAF COR
KCHS 201744Z 2018/2118 27008G13KT P6SM SCT035 SCT060
      TEMPO 2018/2020 SCT035 BKN060
     FM202200 20008KT P6SM SCT045 SCT070
     FM210200 VRB04KT P6SM SKC=



000
FTUS42 KCHS 201700
TAFSAV
TAF
KSAV 201729Z 2018/2118 29010KT P6SM SCT035 SCT060
      TEMPO 2018/2020 SCT035 BKN060
     FM202300 VRB04KT P6SM FEW080=



000
FTUS42 KCHS 201700
TAFCHS
TAF
KCHS 201729Z 2018/2118 27007KT P6SM SCT035 SCT060
      TEMPO 2018/2020 SCT035 BKN060
     FM202200 20008KT P6SM SCT045 SCT070
     FM210200 VRB04KT P6SM SKC=



000
FTUS42 KCHS 201600 CCA
TAFCHS
TAF COR
KCHS 201607Z 2016/2112 VRB06KT P6SM SCT030
     FM202100 20008KT P6SM SCT050
     FM210200 VRB04KT P6SM SKC=



000
FTUS42 KCHS 201600 AAA
TAFSAV
TAF AMD
KSAV 201602Z 2016/2112 26008KT P6SM SCT030
     FM202300 VRB04KT P6SM SKC=



000
FTUS42 KCHS 201600 AAA
TAFCHS
TAF AMD
KCHS 201602Z 2016/2112 VRB05KT P6SM SCT040
     FM202100 20008KT P6SM SCT050
     FM210200 VRB04KT P6SM SKC=



    US Dept of Commerce
    National Oceanic and Atmospheric Administration
    National Weather Service
    1325 East West Highway
    Silver Spring, MD 20910
    Page Author: NWS Internet Services Team
Disclaimer
Information Quality
Credits
Glossary
Privacy Policy
Freedom of Information Act (FOIA)
About Us
Career Opportunities